sensor_id;sensor_type;location;lat;lon;timestamp;P1;durP1;ratioP1;P2;durP2;ratioP2
71973;SDS011;59840;52.122;5.404;2022-12-18T00:01:16;31.10;;;10.93;;
71973;SDS011;59840;52.122;5.404;2022-12-18T00:03:53;27.95;;;9.95;;
71973;SDS011;59840;52.122;5.404;2022-12-18T00:06:21;28.50;;;9.85;;
71973;SDS011;59840;52.122;5.404;2022-12-18T00:08:49;32.28;;;10.75;;
71973;SDS011;59840;52.122;5.404;2022-12-18T00:11:17;25.00;;;9.55;;
71973;SDS011;59840;52.122;5.404;2022-12-18T00:13:44;29.63;;;9.77;;
71973;SDS011;59840;52.122;5.404;2022-12-18T00:16:13;32.63;;;10.90;;
71973;SDS011;59840;52.122;5.404;2022-12-18T00:18:41;30.17;;;11.20;;
71973;SDS011;59840;52.122;5.404;2022-12-18T00:21:09;28.60;;;9.85;;
71973;SDS011;59840;52.122;5.404;2022-12-18T00:23:37;32.78;;;10.30;;
71973;SDS011;59840;52.122;5.404;2022-12-18T00:26:16;33.60;;;11.47;;
71973;SDS011;59840;52.122;5.404;2022-12-18T00:28:45;30.13;;;9.25;;
71973;SDS011;59840;52.122;5.404;2022-12-18T00:31:13;30.23;;;9.90;;
71973;SDS011;59840;52.122;5.404;2022-12-18T00:33:41;33.05;;;11.05;;
71973;SDS011;59840;52.122;5.404;2022-12-18T00:36:11;37.33;;;10.88;;
71973;SDS011;59840;52.122;5.404;2022-12-18T00:38:42;30.47;;;11.07;;
71973;SDS011;59840;52.122;5.404;2022-12-18T00:41:10;37.15;;;10.98;;
71973;SDS011;59840;52.122;5.404;2022-12-18T00:43:38;30.92;;;11.25;;
71973;SDS011;59840;52.122;5.404;2022-12-18T00:46:06;34.13;;;10.45;;
71973;SDS011;59840;52.122;5.404;2022-12-18T00:48:33;30.70;;;10.40;;
71973;SDS011;59840;52.122;5.404;2022-12-18T00:50:59;31.20;;;11.27;;
71973;SDS011;59840;52.122;5.404;2022-12-18T00:53:26;34.15;;;10.98;;
71973;SDS011;59840;52.122;5.404;2022-12-18T00:55:52;28.92;;;10.30;;
71973;SDS011;59840;52.122;5.404;2022-12-18T00:58:19;34.88;;;10.30;;
71973;SDS011;59840;52.122;5.404;2022-12-18T01:00:45;31.17;;;10.68;;
71973;SDS011;59840;52.122;5.404;2022-12-18T01:03:12;28.60;;;10.03;;
71973;SDS011;59840;52.122;5.404;2022-12-18T01:05:41;33.47;;;10.23;;
71973;SDS011;59840;52.122;5.404;2022-12-18T01:08:08;31.95;;;10.18;;
71973;SDS011;59840;52.122;5.404;2022-12-18T01:10:35;34.35;;;11.07;;
71973;SDS011;59840;52.122;5.404;2022-12-18T01:13:02;27.83;;;10.95;;
71973;SDS011;59840;52.122;5.404;2022-12-18T01:15:29;28.90;;;9.97;;
71973;SDS011;59840;52.122;5.404;2022-12-18T01:17:55;31.17;;;11.15;;
71973;SDS011;59840;52.122;5.404;2022-12-18T01:20:22;27.92;;;10.00;;
71973;SDS011;59840;52.122;5.404;2022-12-18T01:22:48;31.05;;;10.65;;
71973;SDS011;59840;52.122;5.404;2022-12-18T01:25:15;28.13;;;10.18;;
71973;SDS011;59840;52.122;5.404;2022-12-18T01:27:41;26.93;;;9.67;;
71973;SDS011;59840;52.122;5.404;2022-12-18T01:30:08;34.90;;;10.02;;
71973;SDS011;59840;52.122;5.404;2022-12-18T01:32:35;33.65;;;10.45;;
71973;SDS011;59840;52.122;5.404;2022-12-18T01:35:01;27.77;;;10.27;;
71973;SDS011;59840;52.122;5.404;2022-12-18T01:37:28;32.92;;;11.10;;
71973;SDS011;59840;52.122;5.404;2022-12-18T01:39:55;29.87;;;9.63;;
71973;SDS011;59840;52.122;5.404;2022-12-18T01:42:21;33.72;;;11.02;;
71973;SDS011;59840;52.122;5.404;2022-12-18T01:49:57;26.40;;;9.40;;
71973;SDS011;59840;52.122;5.404;2022-12-18T01:52:28;32.77;;;10.37;;
71973;SDS011;59840;52.122;5.404;2022-12-18T01:54:59;33.00;;;10.23;;
71973;SDS011;59840;52.122;5.404;2022-12-18T01:57:27;33.15;;;9.98;;
71973;SDS011;59840;52.122;5.404;2022-12-18T01:59:55;28.90;;;10.10;;
71973;SDS011;59840;52.122;5.404;2022-12-18T02:02:27;31.90;;;10.23;;
71973;SDS011;59840;52.122;5.404;2022-12-18T02:04:55;26.93;;;9.77;;
71973;SDS011;59840;52.122;5.404;2022-12-18T02:12:46;32.92;;;10.35;;
71973;SDS011;59840;52.122;5.404;2022-12-18T02:15:36;28.25;;;10.25;;
71973;SDS011;59840;52.122;5.404;2022-12-18T02:18:33;24.30;;;10.50;;
71973;SDS011;59840;52.122;5.404;2022-12-18T02:26:41;25.85;;;8.65;;
71973;SDS011;59840;52.122;5.404;2022-12-18T02:29:18;25.75;;;9.60;;
71973;SDS011;59840;52.122;5.404;2022-12-18T02:31:51;27.43;;;8.87;;
71973;SDS011;59840;52.122;5.404;2022-12-18T02:34:21;26.40;;;10.10;;
71973;SDS011;59840;52.122;5.404;2022-12-18T02:36:52;28.63;;;9.52;;
71973;SDS011;59840;52.122;5.404;2022-12-18T02:39:20;26.58;;;9.50;;
71973;SDS011;59840;52.122;5.404;2022-12-18T02:41:49;25.60;;;9.90;;
71973;SDS011;59840;52.122;5.404;2022-12-18T02:44:16;31.40;;;9.40;;
71973;SDS011;59840;52.122;5.404;2022-12-18T02:46:45;27.77;;;9.90;;
71973;SDS011;59840;52.122;5.404;2022-12-18T02:54:31;26.00;;;8.80;;
71973;SDS011;59840;52.122;5.404;2022-12-18T02:57:24;28.30;;;9.97;;
71973;SDS011;59840;52.122;5.404;2022-12-18T02:59:58;28.33;;;8.45;;
71973;SDS011;59840;52.122;5.404;2022-12-18T03:02:40;22.88;;;9.10;;
71973;SDS011;59840;52.122;5.404;2022-12-18T03:05:33;27.90;;;8.93;;
71973;SDS011;59840;52.122;5.404;2022-12-18T03:08:16;25.10;;;9.45;;
71973;SDS011;59840;52.122;5.404;2022-12-18T03:10:50;23.17;;;7.67;;
71973;SDS011;59840;52.122;5.404;2022-12-18T03:13:27;24.58;;;9.18;;
71973;SDS011;59840;52.122;5.404;2022-12-18T03:15:59;27.75;;;9.82;;
71973;SDS011;59840;52.122;5.404;2022-12-18T03:18:33;27.35;;;9.38;;
71973;SDS011;59840;52.122;5.404;2022-12-18T03:21:02;21.27;;;8.52;;
71973;SDS011;59840;52.122;5.404;2022-12-18T03:23:35;26.57;;;8.93;;
71973;SDS011;59840;52.122;5.404;2022-12-18T03:26:07;21.20;;;9.10;;
71973;SDS011;59840;52.122;5.404;2022-12-18T03:28:39;20.88;;;8.48;;
71973;SDS011;59840;52.122;5.404;2022-12-18T03:31:10;22.95;;;8.55;;
71973;SDS011;59840;52.122;5.404;2022-12-18T03:36:08;23.17;;;9.03;;
71973;SDS011;59840;52.122;5.404;2022-12-18T03:38:35;24.83;;;9.13;;
71973;SDS011;59840;52.122;5.404;2022-12-18T03:41:07;25.83;;;8.48;;
71973;SDS011;59840;52.122;5.404;2022-12-18T03:44:31;17.83;;;7.70;;
71973;SDS011;59840;52.122;5.404;2022-12-18T03:49:35;20.83;;;7.73;;
71973;SDS011;59840;52.122;5.404;2022-12-18T03:52:09;25.83;;;8.65;;
71973;SDS011;59840;52.122;5.404;2022-12-18T03:54:40;19.65;;;7.97;;
71973;SDS011;59840;52.122;5.404;2022-12-18T03:57:13;21.27;;;8.35;;
71973;SDS011;59840;52.122;5.404;2022-12-18T03:59:44;25.30;;;9.80;;
71973;SDS011;59840;52.122;5.404;2022-12-18T04:02:15;22.57;;;8.17;;
71973;SDS011;59840;52.122;5.404;2022-12-18T04:04:43;22.30;;;8.90;;
71973;SDS011;59840;52.122;5.404;2022-12-18T04:07:13;22.65;;;9.02;;
71973;SDS011;59840;52.122;5.404;2022-12-18T04:09:41;16.10;;;7.88;;
71973;SDS011;59840;52.122;5.404;2022-12-18T04:12:11;21.83;;;8.40;;
71973;SDS011;59840;52.122;5.404;2022-12-18T04:14:39;23.27;;;8.57;;
71973;SDS011;59840;52.122;5.404;2022-12-18T04:17:05;24.40;;;9.63;;
71973;SDS011;59840;52.122;5.404;2022-12-18T04:19:32;17.00;;;7.50;;
71973;SDS011;59840;52.122;5.404;2022-12-18T04:21:58;15.05;;;7.18;;
71973;SDS011;59840;52.122;5.404;2022-12-18T04:24:25;19.30;;;7.05;;
71973;SDS011;59840;52.122;5.404;2022-12-18T04:26:52;16.70;;;7.53;;
71973;SDS011;59840;52.122;5.404;2022-12-18T04:29:18;20.98;;;7.97;;
71973;SDS011;59840;52.122;5.404;2022-12-18T04:31:45;17.42;;;7.35;;
71973;SDS011;59840;52.122;5.404;2022-12-18T04:34:11;19.55;;;7.35;;
71973;SDS011;59840;52.122;5.404;2022-12-18T04:36:38;14.45;;;7.75;;
71973;SDS011;59840;52.122;5.404;2022-12-18T04:39:04;15.70;;;7.80;;
71973;SDS011;59840;52.122;5.404;2022-12-18T04:41:31;14.60;;;6.15;;
71973;SDS011;59840;52.122;5.404;2022-12-18T04:43:57;14.38;;;6.10;;
71973;SDS011;59840;52.122;5.404;2022-12-18T04:46:24;13.73;;;6.82;;
71973;SDS011;59840;52.122;5.404;2022-12-18T04:48:50;16.75;;;6.82;;
71973;SDS011;59840;52.122;5.404;2022-12-18T04:51:17;15.07;;;6.80;;
71973;SDS011;59840;52.122;5.404;2022-12-18T04:53:51;10.82;;;4.90;;
71973;SDS011;59840;52.122;5.404;2022-12-18T04:56:17;14.10;;;6.88;;
71973;SDS011;59840;52.122;5.404;2022-12-18T04:58:44;14.65;;;6.22;;
71973;SDS011;59840;52.122;5.404;2022-12-18T05:01:11;11.32;;;6.55;;
71973;SDS011;59840;52.122;5.404;2022-12-18T05:03:39;13.47;;;6.20;;
71973;SDS011;59840;52.122;5.404;2022-12-18T05:06:07;15.13;;;5.90;;
71973;SDS011;59840;52.122;5.404;2022-12-18T05:08:34;13.25;;;5.97;;
71973;SDS011;59840;52.122;5.404;2022-12-18T05:11:02;9.93;;;5.32;;
71973;SDS011;59840;52.122;5.404;2022-12-18T05:13:30;13.55;;;5.93;;
71973;SDS011;59840;52.122;5.404;2022-12-18T05:15:58;13.97;;;6.40;;
71973;SDS011;59840;52.122;5.404;2022-12-18T05:18:25;12.25;;;5.00;;
71973;SDS011;59840;52.122;5.404;2022-12-18T05:20:52;10.13;;;4.85;;
71973;SDS011;59840;52.122;5.404;2022-12-18T05:23:19;13.20;;;5.70;;
71973;SDS011;59840;52.122;5.404;2022-12-18T05:25:50;11.23;;;5.47;;
71973;SDS011;59840;52.122;5.404;2022-12-18T05:28:20;12.40;;;5.67;;
71973;SDS011;59840;52.122;5.404;2022-12-18T05:30:48;9.18;;;5.35;;
71973;SDS011;59840;52.122;5.404;2022-12-18T05:33:19;12.80;;;5.80;;
71973;SDS011;59840;52.122;5.404;2022-12-18T05:35:50;18.02;;;5.68;;
71973;SDS011;59840;52.122;5.404;2022-12-18T05:38:18;12.57;;;5.85;;
71973;SDS011;59840;52.122;5.404;2022-12-18T05:40:47;13.07;;;5.27;;
71973;SDS011;59840;52.122;5.404;2022-12-18T05:43:14;11.57;;;5.00;;
71973;SDS011;59840;52.122;5.404;2022-12-18T05:45:46;12.52;;;6.55;;
71973;SDS011;59840;52.122;5.404;2022-12-18T05:48:14;14.32;;;5.57;;
71973;SDS011;59840;52.122;5.404;2022-12-18T05:50:41;15.98;;;6.22;;
71973;SDS011;59840;52.122;5.404;2022-12-18T05:53:12;12.33;;;5.23;;
71973;SDS011;59840;52.122;5.404;2022-12-18T05:55:41;11.27;;;5.47;;
71973;SDS011;59840;52.122;5.404;2022-12-18T05:58:09;14.48;;;5.30;;
71973;SDS011;59840;52.122;5.404;2022-12-18T06:00:38;10.65;;;5.15;;
71973;SDS011;59840;52.122;5.404;2022-12-18T06:03:07;11.02;;;5.70;;
71973;SDS011;59840;52.122;5.404;2022-12-18T06:05:35;14.77;;;5.30;;
71973;SDS011;59840;52.122;5.404;2022-12-18T06:08:03;10.18;;;4.78;;
71973;SDS011;59840;52.122;5.404;2022-12-18T06:10:30;11.00;;;5.40;;
71973;SDS011;59840;52.122;5.404;2022-12-18T06:12:57;9.02;;;5.03;;
71973;SDS011;59840;52.122;5.404;2022-12-18T06:15:23;12.13;;;4.82;;
71973;SDS011;59840;52.122;5.404;2022-12-18T06:17:50;12.63;;;5.43;;
71973;SDS011;59840;52.122;5.404;2022-12-18T06:20:17;11.07;;;5.25;;
71973;SDS011;59840;52.122;5.404;2022-12-18T06:22:44;10.38;;;5.32;;
71973;SDS011;59840;52.122;5.404;2022-12-18T06:25:11;14.13;;;6.28;;
71973;SDS011;59840;52.122;5.404;2022-12-18T06:27:38;13.52;;;6.25;;
71973;SDS011;59840;52.122;5.404;2022-12-18T06:30:05;9.57;;;5.03;;
71973;SDS011;59840;52.122;5.404;2022-12-18T06:32:32;11.95;;;5.13;;
71973;SDS011;59840;52.122;5.404;2022-12-18T06:34:58;12.65;;;5.85;;
71973;SDS011;59840;52.122;5.404;2022-12-18T06:37:25;9.30;;;5.05;;
71973;SDS011;59840;52.122;5.404;2022-12-18T06:39:55;9.95;;;5.38;;
71973;SDS011;59840;52.122;5.404;2022-12-18T06:42:23;11.67;;;5.30;;
71973;SDS011;59840;52.122;5.404;2022-12-18T06:44:50;10.77;;;5.85;;
71973;SDS011;59840;52.122;5.404;2022-12-18T06:47:16;15.82;;;4.97;;
71973;SDS011;59840;52.122;5.404;2022-12-18T06:49:43;7.78;;;4.93;;
71973;SDS011;59840;52.122;5.404;2022-12-18T06:52:09;8.52;;;4.32;;
71973;SDS011;59840;52.122;5.404;2022-12-18T06:54:36;9.50;;;4.83;;
71973;SDS011;59840;52.122;5.404;2022-12-18T06:57:02;10.02;;;5.65;;
71973;SDS011;59840;52.122;5.404;2022-12-18T06:59:29;11.65;;;4.93;;
71973;SDS011;59840;52.122;5.404;2022-12-18T07:01:56;11.38;;;5.25;;
71973;SDS011;59840;52.122;5.404;2022-12-18T07:04:26;8.30;;;4.78;;
71973;SDS011;59840;52.122;5.404;2022-12-18T07:06:54;9.53;;;5.43;;
71973;SDS011;59840;52.122;5.404;2022-12-18T07:09:20;14.00;;;5.35;;
71973;SDS011;59840;52.122;5.404;2022-12-18T07:11:47;12.05;;;4.57;;
71973;SDS011;59840;52.122;5.404;2022-12-18T07:14:13;11.38;;;5.32;;
71973;SDS011;59840;52.122;5.404;2022-12-18T07:16:40;8.00;;;5.00;;
71973;SDS011;59840;52.122;5.404;2022-12-18T07:19:07;10.57;;;4.70;;
71973;SDS011;59840;52.122;5.404;2022-12-18T07:21:33;8.10;;;4.32;;
71973;SDS011;59840;52.122;5.404;2022-12-18T07:24:00;9.15;;;4.90;;
71973;SDS011;59840;52.122;5.404;2022-12-18T07:26:26;11.77;;;5.32;;
71973;SDS011;59840;52.122;5.404;2022-12-18T07:28:56;15.35;;;5.18;;
71973;SDS011;59840;52.122;5.404;2022-12-18T07:31:24;11.37;;;5.63;;
71973;SDS011;59840;52.122;5.404;2022-12-18T07:33:51;7.97;;;5.03;;
71973;SDS011;59840;52.122;5.404;2022-12-18T07:36:18;8.07;;;5.05;;
71973;SDS011;59840;52.122;5.404;2022-12-18T07:38:49;7.95;;;4.32;;
71973;SDS011;59840;52.122;5.404;2022-12-18T07:41:18;11.52;;;5.00;;
71973;SDS011;59840;52.122;5.404;2022-12-18T07:43:44;14.60;;;5.47;;
71973;SDS011;59840;52.122;5.404;2022-12-18T07:46:12;13.43;;;5.72;;
71973;SDS011;59840;52.122;5.404;2022-12-18T07:48:42;15.05;;;6.20;;
71973;SDS011;59840;52.122;5.404;2022-12-18T07:51:15;11.38;;;5.55;;
71973;SDS011;59840;52.122;5.404;2022-12-18T07:53:43;10.10;;;5.60;;
71973;SDS011;59840;52.122;5.404;2022-12-18T07:56:10;11.33;;;5.40;;
71973;SDS011;59840;52.122;5.404;2022-12-18T07:58:56;12.77;;;5.25;;
71973;SDS011;59840;52.122;5.404;2022-12-18T08:01:23;11.73;;;5.22;;
71973;SDS011;59840;52.122;5.404;2022-12-18T08:03:50;10.90;;;5.40;;
71973;SDS011;59840;52.122;5.404;2022-12-18T08:06:17;11.48;;;5.40;;
71973;SDS011;59840;52.122;5.404;2022-12-18T08:08:52;11.90;;;5.67;;
71973;SDS011;59840;52.122;5.404;2022-12-18T08:11:20;13.00;;;6.38;;
71973;SDS011;59840;52.122;5.404;2022-12-18T08:13:47;11.50;;;6.00;;
71973;SDS011;59840;52.122;5.404;2022-12-18T08:16:14;9.75;;;4.35;;
71973;SDS011;59840;52.122;5.404;2022-12-18T08:18:41;10.32;;;5.43;;
71973;SDS011;59840;52.122;5.404;2022-12-18T08:21:11;11.87;;;5.63;;
71973;SDS011;59840;52.122;5.404;2022-12-18T08:23:39;13.50;;;5.82;;
71973;SDS011;59840;52.122;5.404;2022-12-18T08:26:09;12.52;;;6.18;;
71973;SDS011;59840;52.122;5.404;2022-12-18T08:28:36;12.60;;;5.53;;
71973;SDS011;59840;52.122;5.404;2022-12-18T08:31:03;10.70;;;5.20;;
71973;SDS011;59840;52.122;5.404;2022-12-18T08:33:31;10.53;;;6.27;;
71973;SDS011;59840;52.122;5.404;2022-12-18T08:35:58;13.82;;;6.00;;
71973;SDS011;59840;52.122;5.404;2022-12-18T08:38:25;11.13;;;6.38;;
71973;SDS011;59840;52.122;5.404;2022-12-18T08:41:01;18.15;;;7.05;;
71973;SDS011;59840;52.122;5.404;2022-12-18T08:43:29;12.18;;;5.95;;
71973;SDS011;59840;52.122;5.404;2022-12-18T08:46:14;12.37;;;5.70;;
71973;SDS011;59840;52.122;5.404;2022-12-18T08:48:41;13.95;;;5.80;;
71973;SDS011;59840;52.122;5.404;2022-12-18T08:51:08;9.52;;;5.05;;
71973;SDS011;59840;52.122;5.404;2022-12-18T08:53:35;10.02;;;5.70;;
71973;SDS011;59840;52.122;5.404;2022-12-18T08:56:03;11.93;;;5.80;;
71973;SDS011;59840;52.122;5.404;2022-12-18T08:58:30;8.37;;;5.37;;
71973;SDS011;59840;52.122;5.404;2022-12-18T09:01:04;10.15;;;5.00;;
71973;SDS011;59840;52.122;5.404;2022-12-18T09:03:32;10.25;;;5.32;;
71973;SDS011;59840;52.122;5.404;2022-12-18T09:05:59;16.15;;;5.65;;
71973;SDS011;59840;52.122;5.404;2022-12-18T09:08:25;9.23;;;5.43;;
71973;SDS011;59840;52.122;5.404;2022-12-18T09:10:52;10.13;;;5.90;;
71973;SDS011;59840;52.122;5.404;2022-12-18T09:13:19;12.05;;;6.13;;
71973;SDS011;59840;52.122;5.404;2022-12-18T09:15:47;11.38;;;6.85;;
71973;SDS011;59840;52.122;5.404;2022-12-18T09:18:16;14.05;;;7.07;;
71973;SDS011;59840;52.122;5.404;2022-12-18T09:20:43;12.60;;;6.72;;
71973;SDS011;59840;52.122;5.404;2022-12-18T09:23:10;16.07;;;6.93;;
71973;SDS011;59840;52.122;5.404;2022-12-18T09:25:37;13.45;;;6.90;;
71973;SDS011;59840;52.122;5.404;2022-12-18T09:28:05;10.05;;;5.72;;
71973;SDS011;59840;52.122;5.404;2022-12-18T09:30:39;14.73;;;6.95;;
71973;SDS011;59840;52.122;5.404;2022-12-18T09:33:07;15.35;;;7.15;;
71973;SDS011;59840;52.122;5.404;2022-12-18T09:35:40;9.53;;;6.00;;
71973;SDS011;59840;52.122;5.404;2022-12-18T09:38:09;15.80;;;7.00;;
71973;SDS011;59840;52.122;5.404;2022-12-18T09:40:43;15.85;;;6.30;;
71973;SDS011;59840;52.122;5.404;2022-12-18T09:43:15;11.93;;;6.15;;
71973;SDS011;59840;52.122;5.404;2022-12-18T09:45:47;10.00;;;6.05;;
71973;SDS011;59840;52.122;5.404;2022-12-18T09:48:19;11.03;;;6.53;;
71973;SDS011;59840;52.122;5.404;2022-12-18T09:50:50;12.52;;;6.32;;
71973;SDS011;59840;52.122;5.404;2022-12-18T09:53:23;12.95;;;6.70;;
71973;SDS011;59840;52.122;5.404;2022-12-18T09:55:52;12.27;;;7.22;;
71973;SDS011;59840;52.122;5.404;2022-12-18T10:01:10;15.27;;;5.87;;
71973;SDS011;59840;52.122;5.404;2022-12-18T10:03:38;10.23;;;5.50;;
71973;SDS011;59840;52.122;5.404;2022-12-18T10:06:11;11.05;;;5.72;;
71973;SDS011;59840;52.122;5.404;2022-12-18T10:11:39;12.27;;;6.28;;
71973;SDS011;59840;52.122;5.404;2022-12-18T10:20:16;12.40;;;6.43;;
71973;SDS011;59840;52.122;5.404;2022-12-18T10:27:54;9.47;;;4.93;;
71973;SDS011;59840;52.122;5.404;2022-12-18T10:30:24;10.95;;;5.00;;
71973;SDS011;59840;52.122;5.404;2022-12-18T10:32:51;9.02;;;5.07;;
71973;SDS011;59840;52.122;5.404;2022-12-18T10:35:20;9.85;;;5.03;;
71973;SDS011;59840;52.122;5.404;2022-12-18T10:38:05;9.60;;;5.10;;
71973;SDS011;59840;52.122;5.404;2022-12-18T10:40:57;8.13;;;5.00;;
71973;SDS011;59840;52.122;5.404;2022-12-18T10:48:28;10.93;;;5.25;;
71973;SDS011;59840;52.122;5.404;2022-12-18T10:50:57;12.60;;;5.30;;
71973;SDS011;59840;52.122;5.404;2022-12-18T10:53:38;10.23;;;5.40;;
71973;SDS011;59840;52.122;5.404;2022-12-18T10:56:08;11.93;;;4.72;;
71973;SDS011;59840;52.122;5.404;2022-12-18T10:58:36;10.07;;;4.78;;
71973;SDS011;59840;52.122;5.404;2022-12-18T11:03:43;9.60;;;5.10;;
71973;SDS011;59840;52.122;5.404;2022-12-18T11:06:16;8.53;;;4.63;;
71973;SDS011;59840;52.122;5.404;2022-12-18T11:08:46;9.13;;;5.63;;
71973;SDS011;59840;52.122;5.404;2022-12-18T11:11:24;11.48;;;5.40;;
71973;SDS011;59840;52.122;5.404;2022-12-18T11:14:04;7.18;;;3.95;;
71973;SDS011;59840;52.122;5.404;2022-12-18T11:16:33;11.65;;;5.03;;
71973;SDS011;59840;52.122;5.404;2022-12-18T11:22:20;10.18;;;4.63;;
71973;SDS011;59840;52.122;5.404;2022-12-18T11:24:55;7.38;;;4.60;;
71973;SDS011;59840;52.122;5.404;2022-12-18T11:27:52;9.63;;;4.50;;
71973;SDS011;59840;52.122;5.404;2022-12-18T11:35:59;8.57;;;4.75;;
71973;SDS011;59840;52.122;5.404;2022-12-18T11:38:39;9.35;;;4.90;;
71973;SDS011;59840;52.122;5.404;2022-12-18T11:41:19;10.80;;;4.47;;
71973;SDS011;59840;52.122;5.404;2022-12-18T11:44:13;9.25;;;4.80;;
71973;SDS011;59840;52.122;5.404;2022-12-18T11:46:47;7.07;;;4.07;;
71973;SDS011;59840;52.122;5.404;2022-12-18T11:49:33;11.40;;;4.85;;
71973;SDS011;59840;52.122;5.404;2022-12-18T11:54:27;10.90;;;4.70;;
71973;SDS011;59840;52.122;5.404;2022-12-18T12:00:07;8.47;;;4.37;;
71973;SDS011;59840;52.122;5.404;2022-12-18T12:05:20;9.90;;;5.53;;
71973;SDS011;59840;52.122;5.404;2022-12-18T12:08:01;8.43;;;5.00;;
71973;SDS011;59840;52.122;5.404;2022-12-18T12:15:56;7.15;;;3.85;;
71973;SDS011;59840;52.122;5.404;2022-12-18T12:27:08;10.80;;;5.00;;
71973;SDS011;59840;52.122;5.404;2022-12-18T12:35:06;12.38;;;4.55;;
71973;SDS011;59840;52.122;5.404;2022-12-18T12:40:26;9.00;;;4.90;;
71973;SDS011;59840;52.122;5.404;2022-12-18T12:43:28;9.65;;;4.50;;
71973;SDS011;59840;52.122;5.404;2022-12-18T12:50:56;10.20;;;4.88;;
71973;SDS011;59840;52.122;5.404;2022-12-18T12:53:28;8.80;;;4.73;;
71973;SDS011;59840;52.122;5.404;2022-12-18T12:56:00;10.48;;;5.07;;
71973;SDS011;59840;52.122;5.404;2022-12-18T13:01:01;12.38;;;6.07;;
71973;SDS011;59840;52.122;5.404;2022-12-18T13:09:08;10.48;;;5.38;;
71973;SDS011;59840;52.122;5.404;2022-12-18T13:11:39;12.60;;;5.93;;
71973;SDS011;59840;52.122;5.404;2022-12-18T13:14:33;11.70;;;5.43;;
71973;SDS011;59840;52.122;5.404;2022-12-18T13:19:49;12.07;;;5.30;;
71973;SDS011;59840;52.122;5.404;2022-12-18T13:22:22;12.90;;;6.10;;
71973;SDS011;59840;52.122;5.404;2022-12-18T13:24:56;15.30;;;5.47;;
71973;SDS011;59840;52.122;5.404;2022-12-18T13:43:45;10.95;;;5.35;;
71973;SDS011;59840;52.122;5.404;2022-12-18T13:51:41;16.65;;;6.43;;
71973;SDS011;59840;52.122;5.404;2022-12-18T13:54:25;13.15;;;6.15;;
71973;SDS011;59840;52.122;5.404;2022-12-18T13:57:02;11.77;;;6.05;;
71973;SDS011;59840;52.122;5.404;2022-12-18T13:59:36;13.67;;;5.63;;
71973;SDS011;59840;52.122;5.404;2022-12-18T14:02:17;13.48;;;5.97;;
71973;SDS011;59840;52.122;5.404;2022-12-18T14:04:48;11.63;;;5.28;;
71973;SDS011;59840;52.122;5.404;2022-12-18T14:07:17;11.65;;;4.97;;
71973;SDS011;59840;52.122;5.404;2022-12-18T14:09:54;11.77;;;5.65;;
71973;SDS011;59840;52.122;5.404;2022-12-18T14:12:47;14.83;;;5.53;;
71973;SDS011;59840;52.122;5.404;2022-12-18T14:15:31;17.08;;;5.88;;
71973;SDS011;59840;52.122;5.404;2022-12-18T14:18:01;11.35;;;6.22;;
71973;SDS011;59840;52.122;5.404;2022-12-18T14:20:34;14.65;;;6.45;;
71973;SDS011;59840;52.122;5.404;2022-12-18T14:23:01;12.30;;;5.95;;
71973;SDS011;59840;52.122;5.404;2022-12-18T14:25:28;12.27;;;5.70;;
71973;SDS011;59840;52.122;5.404;2022-12-18T14:28:29;13.20;;;6.55;;
71973;SDS011;59840;52.122;5.404;2022-12-18T14:30:49;11.30;;;5.70;;
71973;SDS011;59840;52.122;5.404;2022-12-18T14:33:17;12.60;;;5.88;;
71973;SDS011;59840;52.122;5.404;2022-12-18T14:35:56;14.38;;;5.75;;
71973;SDS011;59840;52.122;5.404;2022-12-18T14:41:02;14.48;;;6.13;;
71973;SDS011;59840;52.122;5.404;2022-12-18T14:43:43;12.20;;;5.55;;
71973;SDS011;59840;52.122;5.404;2022-12-18T14:49:04;14.65;;;6.45;;
71973;SDS011;59840;52.122;5.404;2022-12-18T14:51:50;8.73;;;4.60;;
71973;SDS011;59840;52.122;5.404;2022-12-18T14:54:19;10.50;;;5.13;;
71973;SDS011;59840;52.122;5.404;2022-12-18T14:56:48;11.55;;;5.80;;
71973;SDS011;59840;52.122;5.404;2022-12-18T14:59:24;12.27;;;5.57;;
71973;SDS011;59840;52.122;5.404;2022-12-18T15:02:09;11.85;;;5.90;;
71973;SDS011;59840;52.122;5.404;2022-12-18T15:04:58;14.33;;;5.63;;
71973;SDS011;59840;52.122;5.404;2022-12-18T15:07:45;13.18;;;5.40;;
71973;SDS011;59840;52.122;5.404;2022-12-18T15:10:17;10.52;;;5.40;;
71973;SDS011;59840;52.122;5.404;2022-12-18T15:26:06;12.73;;;6.57;;
71973;SDS011;59840;52.122;5.404;2022-12-18T15:28:39;11.93;;;6.30;;
71973;SDS011;59840;52.122;5.404;2022-12-18T15:33:43;12.85;;;6.20;;
71973;SDS011;59840;52.122;5.404;2022-12-18T15:36:16;15.82;;;6.75;;
71973;SDS011;59840;52.122;5.404;2022-12-18T15:38:52;15.75;;;6.70;;
71973;SDS011;59840;52.122;5.404;2022-12-18T15:41:31;13.45;;;7.22;;
71973;SDS011;59840;52.122;5.404;2022-12-18T15:44:01;27.27;;;10.10;;
71973;SDS011;59840;52.122;5.404;2022-12-18T15:46:28;40.75;;;14.55;;
71973;SDS011;59840;52.122;5.404;2022-12-18T15:48:57;32.95;;;12.75;;
71973;SDS011;59840;52.122;5.404;2022-12-18T15:53:56;52.10;;;15.13;;
71973;SDS011;59840;52.122;5.404;2022-12-18T15:56:24;37.20;;;13.17;;
71973;SDS011;59840;52.122;5.404;2022-12-18T15:59:14;17.20;;;8.45;;
71973;SDS011;59840;52.122;5.404;2022-12-18T16:01:44;19.98;;;7.63;;
71973;SDS011;59840;52.122;5.404;2022-12-18T16:04:12;26.10;;;8.45;;
71973;SDS011;59840;52.122;5.404;2022-12-18T16:06:40;16.90;;;7.20;;
71973;SDS011;59840;52.122;5.404;2022-12-18T16:09:27;16.97;;;7.80;;
71973;SDS011;59840;52.122;5.404;2022-12-18T16:11:53;12.20;;;6.30;;
71973;SDS011;59840;52.122;5.404;2022-12-18T16:14:27;10.90;;;6.15;;
71973;SDS011;59840;52.122;5.404;2022-12-18T16:16:59;15.68;;;6.85;;
71973;SDS011;59840;52.122;5.404;2022-12-18T16:19:27;12.55;;;6.38;;
71973;SDS011;59840;52.122;5.404;2022-12-18T16:21:55;15.23;;;7.33;;
71973;SDS011;59840;52.122;5.404;2022-12-18T16:24:24;17.88;;;8.88;;
71973;SDS011;59840;52.122;5.404;2022-12-18T16:26:52;13.85;;;6.95;;
71973;SDS011;59840;52.122;5.404;2022-12-18T16:29:20;14.85;;;6.50;;
71973;SDS011;59840;52.122;5.404;2022-12-18T16:31:50;14.80;;;7.05;;
71973;SDS011;59840;52.122;5.404;2022-12-18T16:34:24;13.70;;;6.70;;
71973;SDS011;59840;52.122;5.404;2022-12-18T16:37:00;14.90;;;6.60;;
71973;SDS011;59840;52.122;5.404;2022-12-18T16:39:32;17.27;;;6.85;;
71973;SDS011;59840;52.122;5.404;2022-12-18T16:42:11;12.13;;;5.80;;
71973;SDS011;59840;52.122;5.404;2022-12-18T16:44:42;13.70;;;6.28;;
71973;SDS011;59840;52.122;5.404;2022-12-18T16:47:09;11.93;;;6.07;;
71973;SDS011;59840;52.122;5.404;2022-12-18T16:49:40;14.85;;;6.63;;
71973;SDS011;59840;52.122;5.404;2022-12-18T16:52:07;11.80;;;6.10;;
71973;SDS011;59840;52.122;5.404;2022-12-18T16:54:33;23.20;;;9.15;;
71973;SDS011;59840;52.122;5.404;2022-12-18T16:57:02;17.33;;;8.50;;
71973;SDS011;59840;52.122;5.404;2022-12-18T16:59:30;21.43;;;10.20;;
71973;SDS011;59840;52.122;5.404;2022-12-18T17:01:57;12.90;;;6.43;;
71973;SDS011;59840;52.122;5.404;2022-12-18T17:04:23;15.88;;;7.10;;
71973;SDS011;59840;52.122;5.404;2022-12-18T17:06:50;15.90;;;7.28;;
71973;SDS011;59840;52.122;5.404;2022-12-18T17:09:19;16.30;;;7.07;;
71973;SDS011;59840;52.122;5.404;2022-12-18T17:11:53;20.13;;;8.77;;
71973;SDS011;59840;52.122;5.404;2022-12-18T17:14:20;20.60;;;9.07;;
71973;SDS011;59840;52.122;5.404;2022-12-18T17:16:48;16.00;;;9.05;;
71973;SDS011;59840;52.122;5.404;2022-12-18T17:19:36;16.77;;;7.55;;
71973;SDS011;59840;52.122;5.404;2022-12-18T17:22:03;16.10;;;7.18;;
71973;SDS011;59840;52.122;5.404;2022-12-18T17:24:30;17.57;;;8.67;;
71973;SDS011;59840;52.122;5.404;2022-12-18T17:27:00;17.90;;;7.82;;